sensor_id;sensor_type;location;lat;lon;timestamp;pressure;altitude;pressure_sealevel;temperature;humidity
56594;BME280;42474;51.660;5.824;2023-07-24T00:00:57;1004.3;;;18.2;100
56594;BME280;42474;51.660;5.824;2023-07-24T00:04:57;1004.2;;;18.2;100
56594;BME280;42474;51.660;5.824;2023-07-24T00:08:57;1004.2;;;18.3;100
56594;BME280;42474;51.660;5.824;2023-07-24T00:12:57;1004.2;;;18.2;100
56594;BME280;42474;51.660;5.824;2023-07-24T00:16:57;1004.2;;;18.2;100
56594;BME280;42474;51.660;5.824;2023-07-24T00:20:57;1004.2;;;18.2;100
56594;BME280;42474;51.660;5.824;2023-07-24T00:24:57;1004.2;;;18.1;100
56594;BME280;42474;51.660;5.824;2023-07-24T00:28:58;1004.1;;;18.1;100
56594;BME280;42474;51.660;5.824;2023-07-24T00:32:57;1004;;;18.1;100
56594;BME280;42474;51.660;5.824;2023-07-24T00:36:57;1003.9;;;18.1;100
56594;BME280;42474;51.660;5.824;2023-07-24T00:40:57;1003.9;;;18.1;100
56594;BME280;42474;51.660;5.824;2023-07-24T00:44:57;1003.9;;;18.1;100
56594;BME280;42474;51.660;5.824;2023-07-24T00:48:58;1003.9;;;18.1;100
56594;BME280;42474;51.660;5.824;2023-07-24T00:52:57;1003.8;;;18;100
56594;BME280;42474;51.660;5.824;2023-07-24T00:56:57;1003.7;;;18.1;100
56594;BME280;42474;51.660;5.824;2023-07-24T01:00:57;1003.7;;;18;100
56594;BME280;42474;51.660;5.824;2023-07-24T01:04:57;1003.6;;;18.1;100
56594;BME280;42474;51.660;5.824;2023-07-24T01:08:57;1003.6;;;18;100
56594;BME280;42474;51.660;5.824;2023-07-24T01:12:58;1003.6;;;18;100
56594;BME280;42474;51.660;5.824;2023-07-24T01:16:57;1003.6;;;17.9;100
56594;BME280;42474;51.660;5.824;2023-07-24T01:20:57;1003.5;;;17.9;100
56594;BME280;42474;51.660;5.824;2023-07-24T01:25:00;1003.4;;;17.9;100
56594;BME280;42474;51.660;5.824;2023-07-24T01:28:57;1003.4;;;17.9;100
56594;BME280;42474;51.660;5.824;2023-07-24T01:32:57;1003.4;;;17.9;100
56594;BME280;42474;51.660;5.824;2023-07-24T01:36:57;1003.3;;;17.9;100
56594;BME280;42474;51.660;5.824;2023-07-24T01:40:57;1003.2;;;18;100
56594;BME280;42474;51.660;5.824;2023-07-24T01:44:57;1003.1;;;18;100
56594;BME280;42474;51.660;5.824;2023-07-24T01:48:57;1003.1;;;18;100
56594;BME280;42474;51.660;5.824;2023-07-24T01:52:58;1003;;;18;100
56594;BME280;42474;51.660;5.824;2023-07-24T01:56:57;1003;;;18;100
56594;BME280;42474;51.660;5.824;2023-07-24T02:00:57;1003.1;;;18;100
56594;BME280;42474;51.660;5.824;2023-07-24T02:04:57;1003;;;18;100
56594;BME280;42474;51.660;5.824;2023-07-24T02:08:57;1003;;;18.1;100
56594;BME280;42474;51.660;5.824;2023-07-24T02:12:57;1002.9;;;18.1;100
56594;BME280;42474;51.660;5.824;2023-07-24T02:16:57;1003;;;18.1;100
56594;BME280;42474;51.660;5.824;2023-07-24T02:20:57;1002.9;;;18;100
56594;BME280;42474;51.660;5.824;2023-07-24T02:24:57;1002.8;;;18;100
56594;BME280;42474;51.660;5.824;2023-07-24T02:28:57;1002.8;;;18;100
56594;BME280;42474;51.660;5.824;2023-07-24T02:32:57;1002.7;;;18;100
56594;BME280;42474;51.660;5.824;2023-07-24T02:36:57;1002.7;;;18;100
56594;BME280;42474;51.660;5.824;2023-07-24T02:40:57;1002.6;;;18;100
56594;BME280;42474;51.660;5.824;2023-07-24T02:44:57;1002.6;;;18;100
56594;BME280;42474;51.660;5.824;2023-07-24T02:48:57;1002.7;;;18;100
56594;BME280;42474;51.660;5.824;2023-07-24T02:52:57;1002.7;;;18;100
56594;BME280;42474;51.660;5.824;2023-07-24T02:56:57;1002.8;;;18;100
56594;BME280;42474;51.660;5.824;2023-07-24T03:01:02;1002.7;;;18.1;100
56594;BME280;42474;51.660;5.824;2023-07-24T03:04:58;1002.6;;;18.1;100
56594;BME280;42474;51.660;5.824;2023-07-24T03:08:57;1002.6;;;18.1;100
56594;BME280;42474;51.660;5.824;2023-07-24T03:12:57;1002.6;;;18.1;100
56594;BME280;42474;51.660;5.824;2023-07-24T03:16:57;1002.7;;;18.1;100
56594;BME280;42474;51.660;5.824;2023-07-24T03:20:57;1002.7;;;18;100
56594;BME280;42474;51.660;5.824;2023-07-24T03:24:57;1002.8;;;18;100
56594;BME280;42474;51.660;5.824;2023-07-24T03:28:57;1002.6;;;17.9;100
56594;BME280;42474;51.660;5.824;2023-07-24T03:32:57;1002.5;;;17.9;100
56594;BME280;42474;51.660;5.824;2023-07-24T03:36:57;1002.4;;;17.8;100
56594;BME280;42474;51.660;5.824;2023-07-24T03:40:57;1002.3;;;17.7;100
56594;BME280;42474;51.660;5.824;2023-07-24T03:44:57;1002.3;;;17.8;100
56594;BME280;42474;51.660;5.824;2023-07-24T03:48:57;1002.4;;;17.7;100
56594;BME280;42474;51.660;5.824;2023-07-24T03:52:57;1002.4;;;17.7;100
56594;BME280;42474;51.660;5.824;2023-07-24T03:56:57;1002.3;;;17.7;100
56594;BME280;42474;51.660;5.824;2023-07-24T04:00:57;1002.3;;;17.7;100
56594;BME280;42474;51.660;5.824;2023-07-24T04:04:57;1002.4;;;17.7;100
56594;BME280;42474;51.660;5.824;2023-07-24T04:08:57;1002.4;;;17.7;100
56594;BME280;42474;51.660;5.824;2023-07-24T04:12:57;1002.4;;;17.5;100
56594;BME280;42474;51.660;5.824;2023-07-24T04:16:57;1002.5;;;17.4;100
56594;BME280;42474;51.660;5.824;2023-07-24T04:20:57;1002.6;;;17.1;100
56594;BME280;42474;51.660;5.824;2023-07-24T04:24:57;1002.6;;;17.1;100
56594;BME280;42474;51.660;5.824;2023-07-24T04:28:57;1002.6;;;17.1;100
56594;BME280;42474;51.660;5.824;2023-07-24T04:32:57;1002.7;;;17.1;100
56594;BME280;42474;51.660;5.824;2023-07-24T04:36:57;1002.8;;;17.1;100
56594;BME280;42474;51.660;5.824;2023-07-24T04:40:59;1002.8;;;17.1;100
56594;BME280;42474;51.660;5.824;2023-07-24T04:44:57;1002.7;;;17;100
56594;BME280;42474;51.660;5.824;2023-07-24T04:48:58;1002.6;;;17;100
56594;BME280;42474;51.660;5.824;2023-07-24T04:52:57;1002.6;;;17;100
56594;BME280;42474;51.660;5.824;2023-07-24T04:56:58;1002.6;;;17;100
56594;BME280;42474;51.660;5.824;2023-07-24T05:01:01;1002.7;;;16.9;100
56594;BME280;42474;51.660;5.824;2023-07-24T05:04:57;1002.7;;;16.9;100
56594;BME280;42474;51.660;5.824;2023-07-24T05:08:57;1002.7;;;16.9;100
56594;BME280;42474;51.660;5.824;2023-07-24T05:12:57;1002.6;;;16.8;100
56594;BME280;42474;51.660;5.824;2023-07-24T05:16:58;1002.6;;;16.9;100
56594;BME280;42474;51.660;5.824;2023-07-24T05:20:57;1002.7;;;16.9;100
56594;BME280;42474;51.660;5.824;2023-07-24T05:24:57;1002.8;;;17;100
56594;BME280;42474;51.660;5.824;2023-07-24T05:28:58;1002.9;;;17;100
56594;BME280;42474;51.660;5.824;2023-07-24T05:32:57;1002.8;;;17;100
56594;BME280;42474;51.660;5.824;2023-07-24T05:36:58;1002.9;;;17.1;100
56594;BME280;42474;51.660;5.824;2023-07-24T05:40:58;1002.9;;;17.1;100
56594;BME280;42474;51.660;5.824;2023-07-24T05:44:58;1002.9;;;17.1;100
56594;BME280;42474;51.660;5.824;2023-07-24T05:48:58;1002.9;;;17.1;100
56594;BME280;42474;51.660;5.824;2023-07-24T05:52:57;1003;;;17.2;100
56594;BME280;42474;51.660;5.824;2023-07-24T05:56:58;1002.9;;;17.3;100
56594;BME280;42474;51.660;5.824;2023-07-24T06:00:57;1002.9;;;17.4;100
56594;BME280;42474;51.660;5.824;2023-07-24T06:04:58;1002.9;;;17.5;100
56594;BME280;42474;51.660;5.824;2023-07-24T06:08:57;1002.9;;;17.5;100
56594;BME280;42474;51.660;5.824;2023-07-24T06:12:58;1002.9;;;17.5;100
56594;BME280;42474;51.660;5.824;2023-07-24T06:16:57;1003;;;17.6;100
56594;BME280;42474;51.660;5.824;2023-07-24T06:20:58;1003;;;17.6;100
56594;BME280;42474;51.660;5.824;2023-07-24T06:24:57;1003;;;17.8;100
56594;BME280;42474;51.660;5.824;2023-07-24T06:28:58;1003;;;17.8;100
56594;BME280;42474;51.660;5.824;2023-07-24T06:32:57;1002.9;;;17.9;100
56594;BME280;42474;51.660;5.824;2023-07-24T06:36:58;1002.9;;;18.1;100
56594;BME280;42474;51.660;5.824;2023-07-24T06:40:58;1003;;;18.3;100
56594;BME280;42474;51.660;5.824;2023-07-24T06:44:57;1003;;;18.2;100
56594;BME280;42474;51.660;5.824;2023-07-24T06:48:58;1003;;;18.3;100
56594;BME280;42474;51.660;5.824;2023-07-24T06:52:58;1003;;;18.4;100
56594;BME280;42474;51.660;5.824;2023-07-24T06:56:57;1003.1;;;18.5;100
56594;BME280;42474;51.660;5.824;2023-07-24T07:00:58;1003;;;18.8;100
56594;BME280;42474;51.660;5.824;2023-07-24T07:04:58;1003.1;;;19;100
56594;BME280;42474;51.660;5.824;2023-07-24T07:08:58;1003;;;18.9;100
56594;BME280;42474;51.660;5.824;2023-07-24T07:12:58;1003;;;19;100
56594;BME280;42474;51.660;5.824;2023-07-24T07:16:58;1003;;;18.8;100
56594;BME280;42474;51.660;5.824;2023-07-24T07:20:57;1003;;;18.4;100
56594;BME280;42474;51.660;5.824;2023-07-24T07:24:58;1003;;;18.3;100
56594;BME280;42474;51.660;5.824;2023-07-24T07:28:58;1003.1;;;18.4;100
56594;BME280;42474;51.660;5.824;2023-07-24T07:32:58;1003.1;;;18.4;100
56594;BME280;42474;51.660;5.824;2023-07-24T07:36:58;1003.1;;;18.6;100
56594;BME280;42474;51.660;5.824;2023-07-24T07:40:58;1003.1;;;18.6;100
56594;BME280;42474;51.660;5.824;2023-07-24T07:44:58;1003.1;;;18.6;100
56594;BME280;42474;51.660;5.824;2023-07-24T07:48:58;1003;;;18.5;100
56594;BME280;42474;51.660;5.824;2023-07-24T07:52:58;1003;;;18.5;100
56594;BME280;42474;51.660;5.824;2023-07-24T07:56:58;1002.9;;;18.6;100
56594;BME280;42474;51.660;5.824;2023-07-24T08:00:58;1003;;;18.7;100
56594;BME280;42474;51.660;5.824;2023-07-24T08:04:58;1003;;;18.4;100
56594;BME280;42474;51.660;5.824;2023-07-24T08:08:58;1002.9;;;18.5;100
56594;BME280;42474;51.660;5.824;2023-07-24T08:12:58;1003;;;18.6;100
56594;BME280;42474;51.660;5.824;2023-07-24T08:16:58;1003;;;18.5;100
56594;BME280;42474;51.660;5.824;2023-07-24T08:20:58;1003;;;18.6;100
56594;BME280;42474;51.660;5.824;2023-07-24T08:24:58;1003;;;19.8;100
56594;BME280;42474;51.660;5.824;2023-07-24T08:28:58;1002.9;;;20.3;100
56594;BME280;42474;51.660;5.824;2023-07-24T08:32:58;1003;;;20.2;100
56594;BME280;42474;51.660;5.824;2023-07-24T08:36:58;1003;;;19.8;99
56594;BME280;42474;51.660;5.824;2023-07-24T08:41:01;1003;;;20.1;97.5
56594;BME280;42474;51.660;5.824;2023-07-24T08:44:58;1002.9;;;19.9;98
56594;BME280;42474;51.660;5.824;2023-07-24T08:48:58;1002.8;;;20.1;98.5
56594;BME280;42474;51.660;5.824;2023-07-24T08:52:58;1002.9;;;20.6;97
56594;BME280;42474;51.660;5.824;2023-07-24T08:56:58;1002.9;;;20.4;93.5
56594;BME280;42474;51.660;5.824;2023-07-24T09:01:00;1002.8;;;20.2;91
56594;BME280;42474;51.660;5.824;2023-07-24T09:04:58;1002.8;;;20.1;89.5
56594;BME280;42474;51.660;5.824;2023-07-24T09:08:58;1002.7;;;20.6;89.5
56594;BME280;42474;51.660;5.824;2023-07-24T09:12:58;1002.7;;;20.4;86
56594;BME280;42474;51.660;5.824;2023-07-24T09:17:05;1002.7;;;20.1;90
56594;BME280;42474;51.660;5.824;2023-07-24T09:20:58;1002.7;;;20;91.5
56594;BME280;42474;51.660;5.824;2023-07-24T09:24:58;1002.6;;;20.2;90.5
56594;BME280;42474;51.660;5.824;2023-07-24T09:28:58;1002.6;;;20.6;92
56594;BME280;42474;51.660;5.824;2023-07-24T09:32:58;1002.5;;;21.1;86
56594;BME280;42474;51.660;5.824;2023-07-24T09:36:58;1002.4;;;21.7;86.5
56594;BME280;42474;51.660;5.824;2023-07-24T09:41:00;1002.3;;;21.8;81.5
56594;BME280;42474;51.660;5.824;2023-07-24T09:44:58;1002.2;;;22.4;80.5
56594;BME280;42474;51.660;5.824;2023-07-24T09:48:58;1002.2;;;22.4;78.5
56594;BME280;42474;51.660;5.824;2023-07-24T09:52:58;1002.1;;;22.2;79.5
56594;BME280;42474;51.660;5.824;2023-07-24T09:56:58;1002;;;21.8;80
56594;BME280;42474;51.660;5.824;2023-07-24T10:00:58;1001.9;;;21.5;81
56594;BME280;42474;51.660;5.824;2023-07-24T10:04:58;1001.9;;;21.3;84.5
56594;BME280;42474;51.660;5.824;2023-07-24T10:08:58;1001.9;;;21;84.5
56594;BME280;42474;51.660;5.824;2023-07-24T10:12:58;1002;;;20.9;83.5
56594;BME280;42474;51.660;5.824;2023-07-24T10:16:58;1001.9;;;21;86.5
56594;BME280;42474;51.660;5.824;2023-07-24T10:21:00;1001.9;;;21;85.5
56594;BME280;42474;51.660;5.824;2023-07-24T10:24:58;1002;;;20.9;88
56594;BME280;42474;51.660;5.824;2023-07-24T10:28:58;1002;;;20.6;84
56594;BME280;42474;51.660;5.824;2023-07-24T10:33:03;1002.2;;;20.4;84.5
56594;BME280;42474;51.660;5.824;2023-07-24T10:37:01;1002.2;;;19.8;85.5
56594;BME280;42474;51.660;5.824;2023-07-24T10:41:00;1002.3;;;19.7;88
56594;BME280;42474;51.660;5.824;2023-07-24T10:45:01;1002.3;;;19.6;89.5
56594;BME280;42474;51.660;5.824;2023-07-24T10:49:00;1002.3;;;19.5;89
56594;BME280;42474;51.660;5.824;2023-07-24T10:52:58;1002.3;;;19.5;89.5
56594;BME280;42474;51.660;5.824;2023-07-24T10:56:58;1002.3;;;19.5;91
56594;BME280;42474;51.660;5.824;2023-07-24T11:00:58;1002.5;;;19.6;91
56594;BME280;42474;51.660;5.824;2023-07-24T11:04:58;1002.4;;;19.6;91.5
56594;BME280;42474;51.660;5.824;2023-07-24T11:08:59;1002.4;;;19.7;92.5
56594;BME280;42474;51.660;5.824;2023-07-24T11:12:58;1002.4;;;19.9;92
56594;BME280;42474;51.660;5.824;2023-07-24T11:16:58;1002.4;;;20.6;90.5
56594;BME280;42474;51.660;5.824;2023-07-24T11:20:59;1002.3;;;20.8;86.5
56594;BME280;42474;51.660;5.824;2023-07-24T11:24:58;1002.3;;;21.1;85
56594;BME280;42474;51.660;5.824;2023-07-24T11:28:58;1002.2;;;21.1;85.5
56594;BME280;42474;51.660;5.824;2023-07-24T11:32:59;1002.1;;;21.4;83
56594;BME280;42474;51.660;5.824;2023-07-24T11:36:58;1002.1;;;21.6;83.5
56594;BME280;42474;51.660;5.824;2023-07-24T11:40:58;1002.1;;;21.7;82
56594;BME280;42474;51.660;5.824;2023-07-24T11:45:00;1002.1;;;21.9;81.5
56594;BME280;42474;51.660;5.824;2023-07-24T11:48:58;1002;;;22;80.5
56594;BME280;42474;51.660;5.824;2023-07-24T11:52:58;1002;;;22;79.5
56594;BME280;42474;51.660;5.824;2023-07-24T11:56:58;1002.1;;;22.1;78.5
56594;BME280;42474;51.660;5.824;2023-07-24T12:00:58;1002.1;;;21.6;76
56594;BME280;42474;51.660;5.824;2023-07-24T12:04:58;1002;;;22;77.5
56594;BME280;42474;51.660;5.824;2023-07-24T12:09:01;1002;;;21.9;76.5
56594;BME280;42474;51.660;5.824;2023-07-24T12:12:58;1002;;;22.2;77
56594;BME280;42474;51.660;5.824;2023-07-24T12:17:00;1001.9;;;22.1;76
56594;BME280;42474;51.660;5.824;2023-07-24T12:20:58;1002;;;22.2;74
56594;BME280;42474;51.660;5.824;2023-07-24T12:24:58;1002;;;22.1;75
56594;BME280;42474;51.660;5.824;2023-07-24T12:28:58;1001.9;;;22;76
56594;BME280;42474;51.660;5.824;2023-07-24T12:32:58;1001.9;;;22.2;76
56594;BME280;42474;51.660;5.824;2023-07-24T12:36:58;1001.9;;;22.2;73
56594;BME280;42474;51.660;5.824;2023-07-24T12:40:58;1001.8;;;22.9;74.5
56594;BME280;42474;51.660;5.824;2023-07-24T12:44:58;1001.8;;;22.6;72
56594;BME280;42474;51.660;5.824;2023-07-24T12:48:58;1001.8;;;22.6;73
56594;BME280;42474;51.660;5.824;2023-07-24T12:52:58;1001.7;;;23;73
56594;BME280;42474;51.660;5.824;2023-07-24T12:56:58;1001.8;;;23.2;71.5
56594;BME280;42474;51.660;5.824;2023-07-24T13:00:58;1001.7;;;23.1;71
56594;BME280;42474;51.660;5.824;2023-07-24T13:04:58;1001.7;;;22.9;70.5
56594;BME280;42474;51.660;5.824;2023-07-24T13:08:58;1001.7;;;23.4;70.5
56594;BME280;42474;51.660;5.824;2023-07-24T13:12:59;1001.7;;;23.2;69
56594;BME280;42474;51.660;5.824;2023-07-24T13:16:58;1001.7;;;22.8;70.5
56594;BME280;42474;51.660;5.824;2023-07-24T13:20:58;1001.7;;;22.2;74
56594;BME280;42474;51.660;5.824;2023-07-24T13:24:58;1001.6;;;22.3;77
56594;BME280;42474;51.660;5.824;2023-07-24T13:28:58;1001.6;;;22.9;77
56594;BME280;42474;51.660;5.824;2023-07-24T13:32:58;1001.5;;;23.1;76.5
56594;BME280;42474;51.660;5.824;2023-07-24T13:36:58;1001.5;;;22.9;74.5
56594;BME280;42474;51.660;5.824;2023-07-24T13:40:58;1001.5;;;23.5;72
56594;BME280;42474;51.660;5.824;2023-07-24T13:45:03;1001.5;;;23.2;72
56594;BME280;42474;51.660;5.824;2023-07-24T13:48:58;1001.7;;;23;71
56594;BME280;42474;51.660;5.824;2023-07-24T13:52:58;1001.6;;;22.8;72
56594;BME280;42474;51.660;5.824;2023-07-24T13:56:58;1001.5;;;22.5;73.5
56594;BME280;42474;51.660;5.824;2023-07-24T14:00:58;1001.6;;;22.3;74
56594;BME280;42474;51.660;5.824;2023-07-24T14:04:58;1001.6;;;21.7;76.5
56594;BME280;42474;51.660;5.824;2023-07-24T14:08:58;1001.7;;;21.2;80
56594;BME280;42474;51.660;5.824;2023-07-24T14:12:58;1001.8;;;21.1;81
56594;BME280;42474;51.660;5.824;2023-07-24T14:16:58;1001.9;;;20.6;84
56594;BME280;42474;51.660;5.824;2023-07-24T14:20:58;1002;;;20.4;85.5
56594;BME280;42474;51.660;5.824;2023-07-24T14:24:58;1002;;;20;85.5
56594;BME280;42474;51.660;5.824;2023-07-24T14:28:58;1002.2;;;19.2;93.5
56594;BME280;42474;51.660;5.824;2023-07-24T14:32:58;1002.1;;;18.6;99.5
56594;BME280;42474;51.660;5.824;2023-07-24T14:36:58;1002.2;;;18.2;100
56594;BME280;42474;51.660;5.824;2023-07-24T14:40:58;1002.1;;;18.1;100
56594;BME280;42474;51.660;5.824;2023-07-24T14:44:58;1002;;;18.1;100
56594;BME280;42474;51.660;5.824;2023-07-24T14:48:58;1002;;;18.1;99.5
56594;BME280;42474;51.660;5.824;2023-07-24T14:52:58;1001.9;;;18.5;100
56594;BME280;42474;51.660;5.824;2023-07-24T14:56:58;1001.9;;;19.6;99.5
56594;BME280;42474;51.660;5.824;2023-07-24T15:00:58;1001.9;;;21;93.5
56594;BME280;42474;51.660;5.824;2023-07-24T15:04:58;1001.8;;;21.8;84.5
56594;BME280;42474;51.660;5.824;2023-07-24T15:08:58;1001.7;;;22.2;87.5
56594;BME280;42474;51.660;5.824;2023-07-24T15:12:58;1001.7;;;21.1;85
56594;BME280;42474;51.660;5.824;2023-07-24T15:16:58;1001.6;;;20.8;87.5
56594;BME280;42474;51.660;5.824;2023-07-24T15:20:58;1001.6;;;21.1;87.5
56594;BME280;42474;51.660;5.824;2023-07-24T15:24:58;1001.5;;;21.7;88
56594;BME280;42474;51.660;5.824;2023-07-24T15:28:58;1001.5;;;22.2;86
56594;BME280;42474;51.660;5.824;2023-07-24T15:32:58;1001.6;;;22.3;85.5
56594;BME280;42474;51.660;5.824;2023-07-24T15:36:58;1001.8;;;22.2;82
56594;BME280;42474;51.660;5.824;2023-07-24T15:41:02;1001.8;;;21.5;84.5
56594;BME280;42474;51.660;5.824;2023-07-24T15:44:58;1001.8;;;20.8;87
56594;BME280;42474;51.660;5.824;2023-07-24T15:48:58;1001.7;;;20.4;90
56594;BME280;42474;51.660;5.824;2023-07-24T15:52:58;1001.9;;;20.4;93
56594;BME280;42474;51.660;5.824;2023-07-24T15:56:58;1002.5;;;19.9;100
56594;BME280;42474;51.660;5.824;2023-07-24T16:00:58;1002.5;;;18.8;100
56594;BME280;42474;51.660;5.824;2023-07-24T16:04:58;1002.5;;;18.6;100
56594;BME280;42474;51.660;5.824;2023-07-24T16:08:58;1002.5;;;18.8;100
56594;BME280;42474;51.660;5.824;2023-07-24T16:12:58;1002.4;;;19;100
56594;BME280;42474;51.660;5.824;2023-07-24T16:16:58;1002.3;;;19.1;100
56594;BME280;42474;51.660;5.824;2023-07-24T16:20:58;1002.4;;;19.3;100
56594;BME280;42474;51.660;5.824;2023-07-24T16:24:58;1002.3;;;19.3;100
56594;BME280;42474;51.660;5.824;2023-07-24T16:28:58;1002.4;;;19.4;100
56594;BME280;42474;51.660;5.824;2023-07-24T16:32:58;1002.4;;;19.3;100
56594;BME280;42474;51.660;5.824;2023-07-24T16:36:58;1002.3;;;19.4;100
56594;BME280;42474;51.660;5.824;2023-07-24T16:40:58;1002.5;;;19.3;100
56594;BME280;42474;51.660;5.824;2023-07-24T16:44:58;1002.6;;;19.3;100
56594;BME280;42474;51.660;5.824;2023-07-24T16:48:58;1002.6;;;19.4;100
56594;BME280;42474;51.660;5.824;2023-07-24T16:52:58;1002.6;;;19.7;100
56594;BME280;42474;51.660;5.824;2023-07-24T16:57:01;1002.7;;;20.4;100
56594;BME280;42474;51.660;5.824;2023-07-24T17:00:59;1002.7;;;20.6;100
56594;BME280;42474;51.660;5.824;2023-07-24T17:04:58;1002.7;;;20.5;100
56594;BME280;42474;51.660;5.824;2023-07-24T17:08:58;1002.8;;;20;100
56594;BME280;42474;51.660;5.824;2023-07-24T17:12:58;1002.9;;;20;100
56594;BME280;42474;51.660;5.824;2023-07-24T17:16:58;1002.9;;;20.6;100
56594;BME280;42474;51.660;5.824;2023-07-24T17:20:58;1003;;;20.4;99.5
56594;BME280;42474;51.660;5.824;2023-07-24T17:24:58;1003;;;20.1;97
56594;BME280;42474;51.660;5.824;2023-07-24T17:28:58;1003.1;;;19.7;96.5
56594;BME280;42474;51.660;5.824;2023-07-24T17:32:58;1003.1;;;19.4;95.5
56594;BME280;42474;51.660;5.824;2023-07-24T17:36:58;1003.2;;;19.2;96
56594;BME280;42474;51.660;5.824;2023-07-24T17:40:59;1003.3;;;19;96.5
56594;BME280;42474;51.660;5.824;2023-07-24T17:44:58;1003.4;;;18.8;96
56594;BME280;42474;51.660;5.824;2023-07-24T17:48:58;1003.6;;;18.6;97
56594;BME280;42474;51.660;5.824;2023-07-24T17:52:58;1003.7;;;18.4;98
56594;BME280;42474;51.660;5.824;2023-07-24T17:56:58;1003.7;;;18.2;98
56594;BME280;42474;51.660;5.824;2023-07-24T18:00:58;1003.8;;;18.1;99.5
56594;BME280;42474;51.660;5.824;2023-07-24T18:04:58;1003.9;;;17.8;99.5
56594;BME280;42474;51.660;5.824;2023-07-24T18:08:58;1004;;;17.8;100
56594;BME280;42474;51.660;5.824;2023-07-24T18:12:58;1004;;;17.7;100
56594;BME280;42474;51.660;5.824;2023-07-24T18:16:58;1004.1;;;17.6;100
56594;BME280;42474;51.660;5.824;2023-07-24T18:20:58;1004.2;;;17.6;100
56594;BME280;42474;51.660;5.824;2023-07-24T18:24:58;1004.2;;;17.3;98.5
56594;BME280;42474;51.660;5.824;2023-07-24T18:28:58;1004.2;;;17.1;99.5
56594;BME280;42474;51.660;5.824;2023-07-24T18:32:58;1004.2;;;16.9;99.5
56594;BME280;42474;51.660;5.824;2023-07-24T18:36:58;1004.2;;;16.8;99.5
56594;BME280;42474;51.660;5.824;2023-07-24T18:40:58;1004.2;;;16.7;99.5
56594;BME280;42474;51.660;5.824;2023-07-24T18:44:58;1004.3;;;16.7;100
56594;BME280;42474;51.660;5.824;2023-07-24T18:48:58;1004.3;;;16.7;100
56594;BME280;42474;51.660;5.824;2023-07-24T18:52:58;1004.3;;;16.6;100
56594;BME280;42474;51.660;5.824;2023-07-24T18:56:58;1004.4;;;16.5;100
56594;BME280;42474;51.660;5.824;2023-07-24T19:00:58;1004.4;;;16.4;100
56594;BME280;42474;51.660;5.824;2023-07-24T19:04:58;1004.5;;;16.3;100
56594;BME280;42474;51.660;5.824;2023-07-24T19:08:58;1004.6;;;16.2;100
56594;BME280;42474;51.660;5.824;2023-07-24T19:12:58;1004.6;;;16.1;100
56594;BME280;42474;51.660;5.824;2023-07-24T19:16:58;1004.8;;;16.1;100
56594;BME280;42474;51.660;5.824;2023-07-24T19:20:58;1004.8;;;16.1;100
56594;BME280;42474;51.660;5.824;2023-07-24T19:24:58;1004.9;;;16.1;100
56594;BME280;42474;51.660;5.824;2023-07-24T19:28:58;1005;;;16;100
56594;BME280;42474;51.660;5.824;2023-07-24T19:32:58;1005.1;;;16;100
56594;BME280;42474;51.660;5.824;2023-07-24T19:36:58;1005.1;;;15.8;100
56594;BME280;42474;51.660;5.824;2023-07-24T19:40:59;1005.1;;;15.8;100
56594;BME280;42474;51.660;5.824;2023-07-24T19:44:58;1005.2;;;15.8;100
56594;BME280;42474;51.660;5.824;2023-07-24T19:48:58;1005.3;;;15.9;100
56594;BME280;42474;51.660;5.824;2023-07-24T19:52:58;1005.4;;;15.9;100
56594;BME280;42474;51.660;5.824;2023-07-24T19:56:58;1005.4;;;15.9;100
56594;BME280;42474;51.660;5.824;2023-07-24T20:00:58;1005.5;;;15.9;100
56594;BME280;42474;51.660;5.824;2023-07-24T20:04:58;1005.6;;;15.9;100
56594;BME280;42474;51.660;5.824;2023-07-24T20:08:58;1005.6;;;15.9;100
56594;BME280;42474;51.660;5.824;2023-07-24T20:12:58;1005.7;;;15.9;100
56594;BME280;42474;51.660;5.824;2023-07-24T20:16:58;1005.7;;;15.9;100
56594;BME280;42474;51.660;5.824;2023-07-24T20:20:58;1005.7;;;15.9;100
56594;BME280;42474;51.660;5.824;2023-07-24T20:24:58;1005.7;;;15.9;100
56594;BME280;42474;51.660;5.824;2023-07-24T20:28:58;1005.8;;;15.8;100
56594;BME280;42474;51.660;5.824;2023-07-24T20:32:58;1005.8;;;15.9;100
56594;BME280;42474;51.660;5.824;2023-07-24T20:36:58;1005.9;;;15.9;100
56594;BME280;42474;51.660;5.824;2023-07-24T20:40:58;1005.9;;;15.9;100
56594;BME280;42474;51.660;5.824;2023-07-24T20:44:58;1005.9;;;15.9;100
56594;BME280;42474;51.660;5.824;2023-07-24T20:48:58;1005.9;;;15.9;100
56594;BME280;42474;51.660;5.824;2023-07-24T20:52:58;1005.9;;;15.9;100
56594;BME280;42474;51.660;5.824;2023-07-24T20:56:58;1006;;;15.9;100
56594;BME280;42474;51.660;5.824;2023-07-24T21:00:58;1006;;;15.9;100
56594;BME280;42474;51.660;5.824;2023-07-24T21:04:58;1006.1;;;15.9;100
56594;BME280;42474;51.660;5.824;2023-07-24T21:08:58;1006;;;15.8;100
56594;BME280;42474;51.660;5.824;2023-07-24T21:12:58;1006;;;15.7;100
56594;BME280;42474;51.660;5.824;2023-07-24T21:16:59;1006;;;15.7;100
56594;BME280;42474;51.660;5.824;2023-07-24T21:20:58;1006.1;;;15.8;100
56594;BME280;42474;51.660;5.824;2023-07-24T21:24:58;1006;;;15.7;100
56594;BME280;42474;51.660;5.824;2023-07-24T21:28:58;1006;;;15.7;100
56594;BME280;42474;51.660;5.824;2023-07-24T21:32:58;1006;;;15.7;100
56594;BME280;42474;51.660;5.824;2023-07-24T21:36:58;1006.1;;;15.7;100
56594;BME280;42474;51.660;5.824;2023-07-24T21:40:58;1006;;;15.6;100
56594;BME280;42474;51.660;5.824;2023-07-24T21:44:58;1006.1;;;15.6;100
56594;BME280;42474;51.660;5.824;2023-07-24T21:48:58;1006;;;15.5;100
56594;BME280;42474;51.660;5.824;2023-07-24T21:52:58;1006;;;15.5;100
56594;BME280;42474;51.660;5.824;2023-07-24T21:56:58;1006;;;15.5;100
56594;BME280;42474;51.660;5.824;2023-07-24T22:04:58;1005.9;;;15.4;100
56594;BME280;42474;51.660;5.824;2023-07-24T22:08:58;1005.9;;;15.2;100
56594;BME280;42474;51.660;5.824;2023-07-24T22:12:58;1006;;;15.2;100
56594;BME280;42474;51.660;5.824;2023-07-24T22:16:58;1006.1;;;15.1;100
56594;BME280;42474;51.660;5.824;2023-07-24T22:20:58;1006.1;;;15.1;100
56594;BME280;42474;51.660;5.824;2023-07-24T22:24:58;1006.1;;;14.9;100
56594;BME280;42474;51.660;5.824;2023-07-24T22:28:58;1006.1;;;14.9;100
56594;BME280;42474;51.660;5.824;2023-07-24T22:32:58;1006.1;;;14.8;100
56594;BME280;42474;51.660;5.824;2023-07-24T22:36:58;1006.1;;;14.7;100
56594;BME280;42474;51.660;5.824;2023-07-24T22:40:58;1006.1;;;14.6;100
56594;BME280;42474;51.660;5.824;2023-07-24T22:44:58;1006.1;;;14.5;100
56594;BME280;42474;51.660;5.824;2023-07-24T22:48:58;1006.2;;;14.4;100
56594;BME280;42474;51.660;5.824;2023-07-24T22:52:58;1006.2;;;14.3;100
56594;BME280;42474;51.660;5.824;2023-07-24T22:56:58;1006.2;;;14.2;100